sensor_id;sensor_type;location;lat;lon;timestamp;temperature;humidity
76470;DHT22;65305;52.870;13.660;2023-02-10T00:00:26;14.80;35.10
76470;DHT22;65305;52.870;13.660;2023-02-10T00:02:53;14.90;35.00
76470;DHT22;65305;52.870;13.660;2023-02-10T00:05:19;14.90;34.90
76470;DHT22;65305;52.870;13.660;2023-02-10T00:07:45;15.00;34.90
76470;DHT22;65305;52.870;13.660;2023-02-10T00:10:12;15.10;34.70
76470;DHT22;65305;52.870;13.660;2023-02-10T00:12:38;15.20;34.70
76470;DHT22;65305;52.870;13.660;2023-02-10T00:15:05;15.20;34.60
76470;DHT22;65305;52.870;13.660;2023-02-10T00:17:31;15.30;34.50
76470;DHT22;65305;52.870;13.660;2023-02-10T00:19:58;15.40;34.50
76470;DHT22;65305;52.870;13.660;2023-02-10T00:22:24;15.40;34.40
76470;DHT22;65305;52.870;13.660;2023-02-10T00:24:51;15.50;34.30
76470;DHT22;65305;52.870;13.660;2023-02-10T00:27:17;15.60;34.20
76470;DHT22;65305;52.870;13.660;2023-02-10T00:29:49;15.60;34.10
76470;DHT22;65305;52.870;13.660;2023-02-10T00:32:16;15.70;34.10
76470;DHT22;65305;52.870;13.660;2023-02-10T00:34:43;15.80;34.00
76470;DHT22;65305;52.870;13.660;2023-02-10T00:37:10;15.80;34.00
76470;DHT22;65305;52.870;13.660;2023-02-10T00:39:37;15.90;33.90
76470;DHT22;65305;52.870;13.660;2023-02-10T00:42:03;16.00;33.80
76470;DHT22;65305;52.870;13.660;2023-02-10T00:44:29;16.00;33.70
76470;DHT22;65305;52.870;13.660;2023-02-10T00:46:56;16.10;33.60
76470;DHT22;65305;52.870;13.660;2023-02-10T00:49:22;16.10;33.60
76470;DHT22;65305;52.870;13.660;2023-02-10T00:51:49;16.20;33.50
76470;DHT22;65305;52.870;13.660;2023-02-10T00:54:15;16.20;33.40
76470;DHT22;65305;52.870;13.660;2023-02-10T00:56:42;16.40;33.40
76470;DHT22;65305;52.870;13.660;2023-02-10T00:59:09;16.40;33.30
76470;DHT22;65305;52.870;13.660;2023-02-10T01:01:35;16.40;33.20
76470;DHT22;65305;52.870;13.660;2023-02-10T01:04:02;16.50;33.20
76470;DHT22;65305;52.870;13.660;2023-02-10T01:06:28;16.60;33.10
76470;DHT22;65305;52.870;13.660;2023-02-10T01:08:55;16.60;33.00
76470;DHT22;65305;52.870;13.660;2023-02-10T01:11:21;16.70;33.00
76470;DHT22;65305;52.870;13.660;2023-02-10T01:13:49;16.70;32.90
76470;DHT22;65305;52.870;13.660;2023-02-10T01:16:16;16.80;32.80
76470;DHT22;65305;52.870;13.660;2023-02-10T01:18:43;16.80;32.80
76470;DHT22;65305;52.870;13.660;2023-02-10T01:21:10;16.90;32.70
76470;DHT22;65305;52.870;13.660;2023-02-10T01:23:37;17.00;32.70
76470;DHT22;65305;52.870;13.660;2023-02-10T01:26:04;17.00;32.60
76470;DHT22;65305;52.870;13.660;2023-02-10T01:28:30;17.00;32.60
76470;DHT22;65305;52.870;13.660;2023-02-10T01:30:57;17.10;32.50
76470;DHT22;65305;52.870;13.660;2023-02-10T01:33:23;17.20;32.40
76470;DHT22;65305;52.870;13.660;2023-02-10T01:35:50;17.20;32.40
76470;DHT22;65305;52.870;13.660;2023-02-10T01:38:16;17.20;32.30
76470;DHT22;65305;52.870;13.660;2023-02-10T01:40:42;17.30;32.20
76470;DHT22;65305;52.870;13.660;2023-02-10T01:43:12;17.40;32.20
76470;DHT22;65305;52.870;13.660;2023-02-10T01:45:40;17.40;32.20
76470;DHT22;65305;52.870;13.660;2023-02-10T01:48:08;17.50;32.10
76470;DHT22;65305;52.870;13.660;2023-02-10T01:50:37;17.50;32.00
76470;DHT22;65305;52.870;13.660;2023-02-10T01:53:04;17.50;32.00
76470;DHT22;65305;52.870;13.660;2023-02-10T01:55:32;17.60;31.90
76470;DHT22;65305;52.870;13.660;2023-02-10T01:58:03;17.60;31.90
76470;DHT22;65305;52.870;13.660;2023-02-10T02:00:30;17.70;31.80
76470;DHT22;65305;52.870;13.660;2023-02-10T02:02:57;17.80;31.80
76470;DHT22;65305;52.870;13.660;2023-02-10T02:05:31;17.80;31.70
76470;DHT22;65305;52.870;13.660;2023-02-10T02:07:58;17.80;31.70
76470;DHT22;65305;52.870;13.660;2023-02-10T02:10:29;17.90;31.70
76470;DHT22;65305;52.870;13.660;2023-02-10T02:13:01;17.90;31.60
76470;DHT22;65305;52.870;13.660;2023-02-10T02:15:40;18.00;31.50
76470;DHT22;65305;52.870;13.660;2023-02-10T02:26:26;18.10;31.30
76470;DHT22;65305;52.870;13.660;2023-02-10T02:32:04;18.20;31.30
76470;DHT22;65305;52.870;13.660;2023-02-10T02:37:44;18.30;31.20
76470;DHT22;65305;52.870;13.660;2023-02-10T02:40:11;18.30;31.10
76470;DHT22;65305;52.870;13.660;2023-02-10T02:42:38;18.40;31.10
76470;DHT22;65305;52.870;13.660;2023-02-10T02:45:06;18.40;31.00
76470;DHT22;65305;52.870;13.660;2023-02-10T02:52:48;18.50;30.90
76470;DHT22;65305;52.870;13.660;2023-02-10T02:58:14;18.60;30.80
76470;DHT22;65305;52.870;13.660;2023-02-10T03:00:42;18.70;30.80
76470;DHT22;65305;52.870;13.660;2023-02-10T03:03:09;18.70;30.70
76470;DHT22;65305;52.870;13.660;2023-02-10T03:05:36;18.70;30.70
76470;DHT22;65305;52.870;13.660;2023-02-10T03:08:03;18.80;30.60
76470;DHT22;65305;52.870;13.660;2023-02-10T03:10:29;18.80;30.60
76470;DHT22;65305;52.870;13.660;2023-02-10T03:12:56;18.90;30.60
76470;DHT22;65305;52.870;13.660;2023-02-10T03:15:22;18.90;30.50
76470;DHT22;65305;52.870;13.660;2023-02-10T03:17:49;18.90;30.50
76470;DHT22;65305;52.870;13.660;2023-02-10T03:20:15;18.90;30.50
76470;DHT22;65305;52.870;13.660;2023-02-10T03:22:42;19.00;30.50
76470;DHT22;65305;52.870;13.660;2023-02-10T03:25:09;19.00;30.40
76470;DHT22;65305;52.870;13.660;2023-02-10T03:27:35;19.00;30.40
76470;DHT22;65305;52.870;13.660;2023-02-10T03:30:02;19.10;30.30
76470;DHT22;65305;52.870;13.660;2023-02-10T03:32:29;19.10;30.30
76470;DHT22;65305;52.870;13.660;2023-02-10T03:34:55;19.10;30.30
76470;DHT22;65305;52.870;13.660;2023-02-10T03:37:22;19.20;30.20
76470;DHT22;65305;52.870;13.660;2023-02-10T03:39:48;19.20;30.20
76470;DHT22;65305;52.870;13.660;2023-02-10T03:42:14;19.20;30.20
76470;DHT22;65305;52.870;13.660;2023-02-10T03:44:41;19.20;30.20
76470;DHT22;65305;52.870;13.660;2023-02-10T03:47:08;19.30;30.10
76470;DHT22;65305;52.870;13.660;2023-02-10T03:49:34;19.30;30.10
76470;DHT22;65305;52.870;13.660;2023-02-10T03:52:00;19.30;30.10
76470;DHT22;65305;52.870;13.660;2023-02-10T03:54:27;19.40;30.00
76470;DHT22;65305;52.870;13.660;2023-02-10T03:56:53;19.40;30.00
76470;DHT22;65305;52.870;13.660;2023-02-10T03:59:20;19.40;30.00
76470;DHT22;65305;52.870;13.660;2023-02-10T04:01:46;19.50;30.00
76470;DHT22;65305;52.870;13.660;2023-02-10T04:04:13;19.50;30.00
76470;DHT22;65305;52.870;13.660;2023-02-10T04:06:40;19.50;29.90
76470;DHT22;65305;52.870;13.660;2023-02-10T04:09:06;19.50;29.90
76470;DHT22;65305;52.870;13.660;2023-02-10T04:11:33;19.50;29.90
76470;DHT22;65305;52.870;13.660;2023-02-10T04:13:59;19.60;29.80
76470;DHT22;65305;52.870;13.660;2023-02-10T04:16:26;19.60;29.80
76470;DHT22;65305;52.870;13.660;2023-02-10T04:18:53;19.60;29.80
76470;DHT22;65305;52.870;13.660;2023-02-10T04:21:21;19.70;29.80
76470;DHT22;65305;52.870;13.660;2023-02-10T04:23:48;19.70;29.70
76470;DHT22;65305;52.870;13.660;2023-02-10T04:26:14;19.70;29.70
76470;DHT22;65305;52.870;13.660;2023-02-10T04:28:41;19.70;29.70
76470;DHT22;65305;52.870;13.660;2023-02-10T04:31:07;19.70;29.70
76470;DHT22;65305;52.870;13.660;2023-02-10T04:33:36;19.70;29.70
76470;DHT22;65305;52.870;13.660;2023-02-10T04:36:02;19.70;29.70
76470;DHT22;65305;52.870;13.660;2023-02-10T04:38:29;19.80;29.60
76470;DHT22;65305;52.870;13.660;2023-02-10T04:40:56;19.90;29.60
76470;DHT22;65305;52.870;13.660;2023-02-10T04:43:22;19.90;29.60
76470;DHT22;65305;52.870;13.660;2023-02-10T04:45:49;19.90;29.50
76470;DHT22;65305;52.870;13.660;2023-02-10T04:48:15;20.00;29.50
76470;DHT22;65305;52.870;13.660;2023-02-10T04:50:42;19.90;29.50
76470;DHT22;65305;52.870;13.660;2023-02-10T04:53:08;20.00;29.50
76470;DHT22;65305;52.870;13.660;2023-02-10T04:55:35;20.00;29.40
76470;DHT22;65305;52.870;13.660;2023-02-10T04:58:01;20.00;29.40
76470;DHT22;65305;52.870;13.660;2023-02-10T05:00:28;20.00;29.40
76470;DHT22;65305;52.870;13.660;2023-02-10T05:02:54;20.00;29.40
76470;DHT22;65305;52.870;13.660;2023-02-10T05:05:21;20.00;29.40
76470;DHT22;65305;52.870;13.660;2023-02-10T05:07:51;20.00;29.40
76470;DHT22;65305;52.870;13.660;2023-02-10T05:10:17;20.10;29.40
76470;DHT22;65305;52.870;13.660;2023-02-10T05:12:44;20.10;29.30
76470;DHT22;65305;52.870;13.660;2023-02-10T05:15:11;20.10;29.40
76470;DHT22;65305;52.870;13.660;2023-02-10T05:17:39;20.10;29.30
76470;DHT22;65305;52.870;13.660;2023-02-10T05:20:05;20.20;29.30
76470;DHT22;65305;52.870;13.660;2023-02-10T05:22:36;20.20;29.30
76470;DHT22;65305;52.870;13.660;2023-02-10T05:25:02;20.20;29.30
76470;DHT22;65305;52.870;13.660;2023-02-10T05:27:29;20.30;29.20
76470;DHT22;65305;52.870;13.660;2023-02-10T05:29:56;20.30;29.20
76470;DHT22;65305;52.870;13.660;2023-02-10T05:32:22;20.30;29.20
76470;DHT22;65305;52.870;13.660;2023-02-10T05:34:48;20.30;29.20
76470;DHT22;65305;52.870;13.660;2023-02-10T05:37:15;20.30;29.10
76470;DHT22;65305;52.870;13.660;2023-02-10T05:39:42;20.30;29.10
76470;DHT22;65305;52.870;13.660;2023-02-10T05:42:08;20.30;29.10
76470;DHT22;65305;52.870;13.660;2023-02-10T05:44:35;20.40;29.10
76470;DHT22;65305;52.870;13.660;2023-02-10T05:47:01;20.40;29.10
76470;DHT22;65305;52.870;13.660;2023-02-10T05:49:28;20.40;29.10
76470;DHT22;65305;52.870;13.660;2023-02-10T05:51:54;20.50;29.00
76470;DHT22;65305;52.870;13.660;2023-02-10T05:54:21;20.50;29.00
76470;DHT22;65305;52.870;13.660;2023-02-10T05:56:48;20.50;29.00
76470;DHT22;65305;52.870;13.660;2023-02-10T05:59:15;20.50;29.00
76470;DHT22;65305;52.870;13.660;2023-02-10T06:01:42;20.50;29.00
76470;DHT22;65305;52.870;13.660;2023-02-10T06:04:09;20.50;29.00
76470;DHT22;65305;52.870;13.660;2023-02-10T06:06:35;20.50;29.00
76470;DHT22;65305;52.870;13.660;2023-02-10T06:09:02;20.50;28.90
76470;DHT22;65305;52.870;13.660;2023-02-10T06:11:28;20.60;28.90
76470;DHT22;65305;52.870;13.660;2023-02-10T06:13:55;20.60;28.90
76470;DHT22;65305;52.870;13.660;2023-02-10T06:16:21;20.60;28.90
76470;DHT22;65305;52.870;13.660;2023-02-10T06:18:48;20.60;28.90
76470;DHT22;65305;52.870;13.660;2023-02-10T06:21:15;20.60;28.90
76470;DHT22;65305;52.870;13.660;2023-02-10T06:23:41;20.60;28.90
76470;DHT22;65305;52.870;13.660;2023-02-10T06:26:08;20.60;28.90
76470;DHT22;65305;52.870;13.660;2023-02-10T06:28:34;20.60;28.90
76470;DHT22;65305;52.870;13.660;2023-02-10T06:31:01;20.70;28.80
76470;DHT22;65305;52.870;13.660;2023-02-10T06:33:28;20.70;28.80
76470;DHT22;65305;52.870;13.660;2023-02-10T06:35:55;20.70;28.70
76470;DHT22;65305;52.870;13.660;2023-02-10T06:38:21;20.50;29.00
76470;DHT22;65305;52.870;13.660;2023-02-10T06:40:48;20.10;28.80
76470;DHT22;65305;52.870;13.660;2023-02-10T06:43:14;19.70;28.70
76470;DHT22;65305;52.870;13.660;2023-02-10T06:45:41;19.40;28.90
76470;DHT22;65305;52.870;13.660;2023-02-10T06:48:07;19.10;29.10
76470;DHT22;65305;52.870;13.660;2023-02-10T06:50:34;18.70;29.30
76470;DHT22;65305;52.870;13.660;2023-02-10T06:53:00;18.50;29.60
76470;DHT22;65305;52.870;13.660;2023-02-10T06:55:27;18.20;29.80
76470;DHT22;65305;52.870;13.660;2023-02-10T06:57:57;18.00;29.90
76470;DHT22;65305;52.870;13.660;2023-02-10T07:00:24;17.80;30.10
76470;DHT22;65305;52.870;13.660;2023-02-10T07:02:51;17.70;30.20
76470;DHT22;65305;52.870;13.660;2023-02-10T07:05:17;17.50;30.40
76470;DHT22;65305;52.870;13.660;2023-02-10T07:07:44;17.40;30.50
76470;DHT22;65305;52.870;13.660;2023-02-10T07:10:10;17.20;30.70
76470;DHT22;65305;52.870;13.660;2023-02-10T07:12:37;17.00;30.90
76470;DHT22;65305;52.870;13.660;2023-02-10T07:15:04;17.00;31.10
76470;DHT22;65305;52.870;13.660;2023-02-10T07:17:31;16.80;31.20
76470;DHT22;65305;52.870;13.660;2023-02-10T07:19:58;16.70;31.30
76470;DHT22;65305;52.870;13.660;2023-02-10T07:22:24;16.60;31.50
76470;DHT22;65305;52.870;13.660;2023-02-10T07:24:51;16.50;31.60
76470;DHT22;65305;52.870;13.660;2023-02-10T07:27:17;16.40;31.70
76470;DHT22;65305;52.870;13.660;2023-02-10T07:29:44;16.20;31.90
76470;DHT22;65305;52.870;13.660;2023-02-10T07:32:10;16.10;32.00
76470;DHT22;65305;52.870;13.660;2023-02-10T07:34:37;16.00;32.10
76470;DHT22;65305;52.870;13.660;2023-02-10T07:37:07;16.00;32.30
76470;DHT22;65305;52.870;13.660;2023-02-10T07:39:33;15.80;32.40
76470;DHT22;65305;52.870;13.660;2023-02-10T07:41:59;15.70;32.50
76470;DHT22;65305;52.870;13.660;2023-02-10T07:44:26;15.60;32.60
76470;DHT22;65305;52.870;13.660;2023-02-10T07:46:52;15.60;32.70
76470;DHT22;65305;52.870;13.660;2023-02-10T07:49:19;15.50;32.90
76470;DHT22;65305;52.870;13.660;2023-02-10T07:51:45;15.40;33.00
76470;DHT22;65305;52.870;13.660;2023-02-10T07:54:12;15.30;33.20
76470;DHT22;65305;52.870;13.660;2023-02-10T07:56:38;15.20;33.20
76470;DHT22;65305;52.870;13.660;2023-02-10T07:59:04;15.10;33.30
76470;DHT22;65305;52.870;13.660;2023-02-10T08:01:31;15.00;33.40
76470;DHT22;65305;52.870;13.660;2023-02-10T08:03:57;15.00;33.60
76470;DHT22;65305;52.870;13.660;2023-02-10T08:06:24;14.90;33.70
76470;DHT22;65305;52.870;13.660;2023-02-10T08:08:51;14.80;33.80
76470;DHT22;65305;52.870;13.660;2023-02-10T08:11:18;14.70;33.90
76470;DHT22;65305;52.870;13.660;2023-02-10T08:13:44;14.60;34.00
76470;DHT22;65305;52.870;13.660;2023-02-10T08:16:11;14.60;34.10
76470;DHT22;65305;52.870;13.660;2023-02-10T08:18:37;14.50;34.10
76470;DHT22;65305;52.870;13.660;2023-02-10T08:21:04;14.40;34.30
76470;DHT22;65305;52.870;13.660;2023-02-10T08:23:31;14.30;34.40
76470;DHT22;65305;52.870;13.660;2023-02-10T08:25:57;14.30;34.40
76470;DHT22;65305;52.870;13.660;2023-02-10T08:28:24;14.20;34.60
76470;DHT22;65305;52.870;13.660;2023-02-10T08:30:51;14.10;34.70
76470;DHT22;65305;52.870;13.660;2023-02-10T08:33:18;14.00;34.70
76470;DHT22;65305;52.870;13.660;2023-02-10T08:35:44;14.00;34.80
76470;DHT22;65305;52.870;13.660;2023-02-10T08:38:11;13.90;34.90
76470;DHT22;65305;52.870;13.660;2023-02-10T08:40:37;13.90;35.00
76470;DHT22;65305;52.870;13.660;2023-02-10T08:43:04;13.80;35.10
76470;DHT22;65305;52.870;13.660;2023-02-10T08:45:30;13.70;35.20
76470;DHT22;65305;52.870;13.660;2023-02-10T08:47:57;13.60;35.30
76470;DHT22;65305;52.870;13.660;2023-02-10T08:50:23;13.60;35.40
76470;DHT22;65305;52.870;13.660;2023-02-10T08:52:50;13.50;35.50
76470;DHT22;65305;52.870;13.660;2023-02-10T08:55:16;13.50;35.50
76470;DHT22;65305;52.870;13.660;2023-02-10T08:57:43;13.50;35.60
76470;DHT22;65305;52.870;13.660;2023-02-10T09:00:09;13.30;35.70
76470;DHT22;65305;52.870;13.660;2023-02-10T09:02:36;13.30;35.80
76470;DHT22;65305;52.870;13.660;2023-02-10T09:05:02;13.30;35.90
76470;DHT22;65305;52.870;13.660;2023-02-10T09:07:29;13.20;35.90
76470;DHT22;65305;52.870;13.660;2023-02-10T09:09:56;13.10;36.00
76470;DHT22;65305;52.870;13.660;2023-02-10T09:12:22;13.10;36.10
76470;DHT22;65305;52.870;13.660;2023-02-10T09:14:49;13.10;36.20
76470;DHT22;65305;52.870;13.660;2023-02-10T09:17:15;13.00;36.30
76470;DHT22;65305;52.870;13.660;2023-02-10T09:19:42;13.00;36.40
76470;DHT22;65305;52.870;13.660;2023-02-10T09:22:08;12.90;36.40
76470;DHT22;65305;52.870;13.660;2023-02-10T09:24:35;12.90;36.50
76470;DHT22;65305;52.870;13.660;2023-02-10T09:27:01;12.80;36.60
76470;DHT22;65305;52.870;13.660;2023-02-10T09:29:28;12.80;36.70
76470;DHT22;65305;52.870;13.660;2023-02-10T09:31:55;12.70;36.70
76470;DHT22;65305;52.870;13.660;2023-02-10T09:34:23;12.70;36.80
76470;DHT22;65305;52.870;13.660;2023-02-10T09:36:49;12.60;36.90
76470;DHT22;65305;52.870;13.660;2023-02-10T09:39:16;12.50;37.00
76470;DHT22;65305;52.870;13.660;2023-02-10T09:41:45;12.50;37.10
76470;DHT22;65305;52.870;13.660;2023-02-10T09:44:22;12.50;37.20
76470;DHT22;65305;52.870;13.660;2023-02-10T09:54:40;12.30;37.40
76470;DHT22;65305;52.870;13.660;2023-02-10T09:57:14;12.20;37.50
76470;DHT22;65305;52.870;13.660;2023-02-10T09:59:42;12.20;37.60
76470;DHT22;65305;52.870;13.660;2023-02-10T10:02:13;12.10;37.70
76470;DHT22;65305;52.870;13.660;2023-02-10T10:04:42;12.10;37.70
76470;DHT22;65305;52.870;13.660;2023-02-10T10:07:23;12.00;37.80
76470;DHT22;65305;52.870;13.660;2023-02-10T10:09:59;12.00;37.90
76470;DHT22;65305;52.870;13.660;2023-02-10T10:12:28;11.90;38.00
76470;DHT22;65305;52.870;13.660;2023-02-10T10:14:55;11.90;38.00
76470;DHT22;65305;52.870;13.660;2023-02-10T10:19:54;11.90;38.10
76470;DHT22;65305;52.870;13.660;2023-02-10T10:27:54;11.70;38.30
76470;DHT22;65305;52.870;13.660;2023-02-10T10:30:32;11.70;38.40
76470;DHT22;65305;52.870;13.660;2023-02-10T10:33:06;11.70;38.50
76470;DHT22;65305;52.870;13.660;2023-02-10T10:35:39;11.60;38.60
76470;DHT22;65305;52.870;13.660;2023-02-10T10:38:11;11.50;38.60
76470;DHT22;65305;52.870;13.660;2023-02-10T10:40:38;11.50;38.70
76470;DHT22;65305;52.870;13.660;2023-02-10T10:43:12;11.50;38.70
76470;DHT22;65305;52.870;13.660;2023-02-10T10:45:42;11.50;38.80
76470;DHT22;65305;52.870;13.660;2023-02-10T10:48:19;11.40;38.90
76470;DHT22;65305;52.870;13.660;2023-02-10T10:50:54;11.40;38.90
76470;DHT22;65305;52.870;13.660;2023-02-10T10:56:27;11.30;39.10
76470;DHT22;65305;52.870;13.660;2023-02-10T10:58:56;11.30;39.20
76470;DHT22;65305;52.870;13.660;2023-02-10T11:01:36;11.30;39.20
76470;DHT22;65305;52.870;13.660;2023-02-10T11:04:14;11.10;39.30
76470;DHT22;65305;52.870;13.660;2023-02-10T11:06:42;11.10;39.30
76470;DHT22;65305;52.870;13.660;2023-02-10T11:11:51;11.10;39.40
76470;DHT22;65305;52.870;13.660;2023-02-10T11:14:24;11.10;39.50
76470;DHT22;65305;52.870;13.660;2023-02-10T11:16:52;11.00;39.60
76470;DHT22;65305;52.870;13.660;2023-02-10T11:19:23;11.00;39.70
76470;DHT22;65305;52.870;13.660;2023-02-10T11:21:49;10.90;39.70
76470;DHT22;65305;52.870;13.660;2023-02-10T11:24:21;10.90;39.70
76470;DHT22;65305;52.870;13.660;2023-02-10T11:26:57;10.90;39.80
76470;DHT22;65305;52.870;13.660;2023-02-10T11:29:23;10.90;39.80
76470;DHT22;65305;52.870;13.660;2023-02-10T11:31:50;10.80;39.90
76470;DHT22;65305;52.870;13.660;2023-02-10T11:37:34;10.70;40.00
76470;DHT22;65305;52.870;13.660;2023-02-10T11:40:05;10.70;40.10
76470;DHT22;65305;52.870;13.660;2023-02-10T11:42:45;10.70;40.20
76470;DHT22;65305;52.870;13.660;2023-02-10T11:45:18;10.70;40.20
76470;DHT22;65305;52.870;13.660;2023-02-10T11:47:45;10.60;40.30
76470;DHT22;65305;52.870;13.660;2023-02-10T11:50:23;10.60;40.30
76470;DHT22;65305;52.870;13.660;2023-02-10T11:52:51;10.60;40.40
76470;DHT22;65305;52.870;13.660;2023-02-10T11:55:17;10.50;40.50
76470;DHT22;65305;52.870;13.660;2023-02-10T11:57:49;10.50;40.50
76470;DHT22;65305;52.870;13.660;2023-02-10T12:00:51;10.50;40.50
76470;DHT22;65305;52.870;13.660;2023-02-10T12:06:03;10.40;40.70
76470;DHT22;65305;52.870;13.660;2023-02-10T12:11:10;10.40;40.80
76470;DHT22;65305;52.870;13.660;2023-02-10T12:16:20;10.30;40.80
76470;DHT22;65305;52.870;13.660;2023-02-10T12:18:53;10.30;40.90
76470;DHT22;65305;52.870;13.660;2023-02-10T12:26:32;10.20;41.10
76470;DHT22;65305;52.870;13.660;2023-02-10T12:29:08;10.20;41.20
76470;DHT22;65305;52.870;13.660;2023-02-10T12:39:13;10.00;41.40
76470;DHT22;65305;52.870;13.660;2023-02-10T12:46:59;10.00;41.50
76470;DHT22;65305;52.870;13.660;2023-02-10T12:52:00;10.00;41.60
76470;DHT22;65305;52.870;13.660;2023-02-10T12:54:34;10.00;41.70
76470;DHT22;65305;52.870;13.660;2023-02-10T12:57:09;9.90;41.80
76470;DHT22;65305;52.870;13.660;2023-02-10T12:59:43;9.80;41.80
76470;DHT22;65305;52.870;13.660;2023-02-10T13:02:16;9.80;41.80
76470;DHT22;65305;52.870;13.660;2023-02-10T13:04:47;9.80;41.90
76470;DHT22;65305;52.870;13.660;2023-02-10T13:07:23;9.80;41.90
76470;DHT22;65305;52.870;13.660;2023-02-10T13:12:36;9.70;42.00
76470;DHT22;65305;52.870;13.660;2023-02-10T13:15:04;9.70;42.10
76470;DHT22;65305;52.870;13.660;2023-02-10T13:17:36;9.70;42.10
76470;DHT22;65305;52.870;13.660;2023-02-10T13:20:08;9.60;42.20
76470;DHT22;65305;52.870;13.660;2023-02-10T13:22:45;9.60;42.20
76470;DHT22;65305;52.870;13.660;2023-02-10T13:25:16;9.60;42.30
76470;DHT22;65305;52.870;13.660;2023-02-10T13:28:19;9.60;42.30
76470;DHT22;65305;52.870;13.660;2023-02-10T13:36:02;9.50;42.50
76470;DHT22;65305;52.870;13.660;2023-02-10T13:38:33;9.50;42.50
76470;DHT22;65305;52.870;13.660;2023-02-10T13:40:59;9.50;42.50
76470;DHT22;65305;52.870;13.660;2023-02-10T13:43:55;9.40;42.60
76470;DHT22;65305;52.870;13.660;2023-02-10T13:46:27;9.40;42.70
76470;DHT22;65305;52.870;13.660;2023-02-10T13:48:56;9.40;42.70
76470;DHT22;65305;52.870;13.660;2023-02-10T13:51:31;9.40;42.70
76470;DHT22;65305;52.870;13.660;2023-02-10T13:54:00;9.40;42.80
76470;DHT22;65305;52.870;13.660;2023-02-10T13:56:28;9.40;42.90
76470;DHT22;65305;52.870;13.660;2023-02-10T13:58:58;9.40;42.90
76470;DHT22;65305;52.870;13.660;2023-02-10T14:01:36;9.30;43.00
76470;DHT22;65305;52.870;13.660;2023-02-10T14:04:05;9.30;43.00
76470;DHT22;65305;52.870;13.660;2023-02-10T14:06:34;9.20;43.00
76470;DHT22;65305;52.870;13.660;2023-02-10T14:09:06;9.20;43.10
76470;DHT22;65305;52.870;13.660;2023-02-10T14:11:40;9.20;43.10
76470;DHT22;65305;52.870;13.660;2023-02-10T14:14:20;9.20;43.20
76470;DHT22;65305;52.870;13.660;2023-02-10T14:16:48;9.20;43.20
76470;DHT22;65305;52.870;13.660;2023-02-10T14:19:28;9.20;43.20
76470;DHT22;65305;52.870;13.660;2023-02-10T14:21:57;9.20;43.30
76470;DHT22;65305;52.870;13.660;2023-02-10T14:24:25;9.20;43.30
76470;DHT22;65305;52.870;13.660;2023-02-10T14:26:52;9.20;43.40
76470;DHT22;65305;52.870;13.660;2023-02-10T14:29:20;9.10;43.40
76470;DHT22;65305;52.870;13.660;2023-02-10T14:31:53;9.10;43.50
76470;DHT22;65305;52.870;13.660;2023-02-10T14:34:24;9.00;43.50
76470;DHT22;65305;52.870;13.660;2023-02-10T14:36:52;9.00;43.60
76470;DHT22;65305;52.870;13.660;2023-02-10T14:39:21;9.00;43.60
76470;DHT22;65305;52.870;13.660;2023-02-10T14:41:48;9.00;43.60
76470;DHT22;65305;52.870;13.660;2023-02-10T14:44:22;9.00;43.70
76470;DHT22;65305;52.870;13.660;2023-02-10T14:46:50;9.00;43.70
76470;DHT22;65305;52.870;13.660;2023-02-10T14:49:18;9.00;43.70
76470;DHT22;65305;52.870;13.660;2023-02-10T14:51:46;8.90;43.80
76470;DHT22;65305;52.870;13.660;2023-02-10T14:54:19;8.90;43.90
76470;DHT22;65305;52.870;13.660;2023-02-10T14:56:56;8.90;43.90
76470;DHT22;65305;52.870;13.660;2023-02-10T14:59:24;8.90;43.90
76470;DHT22;65305;52.870;13.660;2023-02-10T15:01:52;8.90;44.00
76470;DHT22;65305;52.870;13.660;2023-02-10T15:04:18;8.90;44.00
76470;DHT22;65305;52.870;13.660;2023-02-10T15:06:45;8.90;44.00
76470;DHT22;65305;52.870;13.660;2023-02-10T15:09:14;8.80;44.10
76470;DHT22;65305;52.870;13.660;2023-02-10T15:11:44;8.80;44.10
76470;DHT22;65305;52.870;13.660;2023-02-10T15:14:34;8.80;44.10
76470;DHT22;65305;52.870;13.660;2023-02-10T15:17:04;8.80;44.20
76470;DHT22;65305;52.870;13.660;2023-02-10T15:19:33;8.80;44.20
76470;DHT22;65305;52.870;13.660;2023-02-10T15:22:00;8.70;44.20
76470;DHT22;65305;52.870;13.660;2023-02-10T15:24:27;8.70;44.30
76470;DHT22;65305;52.870;13.660;2023-02-10T15:26:55;8.70;44.30
76470;DHT22;65305;52.870;13.660;2023-02-10T15:29:22;8.70;44.40
76470;DHT22;65305;52.870;13.660;2023-02-10T15:31:55;8.60;44.40
76470;DHT22;65305;52.870;13.660;2023-02-10T15:36:50;8.60;44.40
76470;DHT22;65305;52.870;13.660;2023-02-10T15:39:23;8.60;44.50
76470;DHT22;65305;52.870;13.660;2023-02-10T15:46:45;8.60;44.60
76470;DHT22;65305;52.870;13.660;2023-02-10T15:49:12;8.60;44.70
76470;DHT22;65305;52.870;13.660;2023-02-10T15:51:42;8.60;44.70
76470;DHT22;65305;52.870;13.660;2023-02-10T15:54:12;8.60;44.70
76470;DHT22;65305;52.870;13.660;2023-02-10T15:56:39;8.60;44.70
76470;DHT22;65305;52.870;13.660;2023-02-10T15:59:15;8.50;44.80
76470;DHT22;65305;52.870;13.660;2023-02-10T16:01:42;8.50;44.70
76470;DHT22;65305;52.870;13.660;2023-02-10T16:04:08;8.50;44.80
76470;DHT22;65305;52.870;13.660;2023-02-10T16:06:38;8.50;44.90
76470;DHT22;65305;52.870;13.660;2023-02-10T16:09:04;8.50;44.90
76470;DHT22;65305;52.870;13.660;2023-02-10T16:11:31;8.40;44.90
76470;DHT22;65305;52.870;13.660;2023-02-10T16:13:57;8.40;44.90
76470;DHT22;65305;52.870;13.660;2023-02-10T16:16:24;8.40;45.00
76470;DHT22;65305;52.870;13.660;2023-02-10T16:18:51;8.40;45.00
76470;DHT22;65305;52.870;13.660;2023-02-10T16:21:17;8.40;45.10
76470;DHT22;65305;52.870;13.660;2023-02-10T16:23:44;8.40;45.10
76470;DHT22;65305;52.870;13.660;2023-02-10T16:26:18;8.30;45.10
76470;DHT22;65305;52.870;13.660;2023-02-10T16:28:45;8.30;45.20
76470;DHT22;65305;52.870;13.660;2023-02-10T16:31:12;8.30;45.20
76470;DHT22;65305;52.870;13.660;2023-02-10T16:33:38;8.30;45.20
76470;DHT22;65305;52.870;13.660;2023-02-10T16:36:08;8.30;45.30
76470;DHT22;65305;52.870;13.660;2023-02-10T16:38:35;8.30;45.30
76470;DHT22;65305;52.870;13.660;2023-02-10T16:41:01;8.30;45.30
76470;DHT22;65305;52.870;13.660;2023-02-10T16:43:28;8.30;45.40
76470;DHT22;65305;52.870;13.660;2023-02-10T16:45:54;8.20;45.40
76470;DHT22;65305;52.870;13.660;2023-02-10T16:48:20;8.30;45.40
76470;DHT22;65305;52.870;13.660;2023-02-10T16:50:47;8.20;45.50
76470;DHT22;65305;52.870;13.660;2023-02-10T16:53:14;8.20;45.50
76470;DHT22;65305;52.870;13.660;2023-02-10T16:55:40;8.20;45.50
76470;DHT22;65305;52.870;13.660;2023-02-10T16:58:07;8.20;45.50